createdAt,value
2023-04-19T00:00:09.637Z,8.31
2023-04-19T00:02:42.880Z,8.30
2023-04-19T00:05:13.997Z,8.29
2023-04-19T00:07:42.869Z,8.30
2023-04-19T00:10:11.584Z,8.34
2023-04-19T00:12:40.770Z,8.40
2023-04-19T00:15:10.290Z,8.46
2023-04-19T00:17:39.120Z,8.49
2023-04-19T00:20:08.649Z,8.51
2023-04-19T00:22:38.059Z,8.51
2023-04-19T00:25:06.989Z,8.50
2023-04-19T00:27:37.117Z,8.48
2023-04-19T00:30:07.947Z,8.45
2023-04-19T00:32:36.785Z,8.44
2023-04-19T00:35:06.235Z,8.48
2023-04-19T00:37:34.910Z,8.50
2023-04-19T00:40:04.832Z,8.53
2023-04-19T00:42:34.969Z,8.54
2023-04-19T00:45:04.380Z,8.53
2023-04-19T00:47:33.207Z,8.52
2023-04-19T00:50:01.973Z,8.51
2023-04-19T00:52:30.713Z,8.52
2023-04-19T00:55:00.153Z,8.52
2023-04-19T00:57:30.346Z,8.57
2023-04-19T00:59:59.743Z,8.65
2023-04-19T01:02:28.892Z,8.73
2023-04-19T01:04:58.044Z,8.77
2023-04-19T01:07:27.233Z,8.79
2023-04-19T01:09:55.712Z,8.80
2023-04-19T01:12:24.197Z,8.80
2023-04-19T01:14:53.496Z,8.79
2023-04-19T01:17:22.000Z,8.78
2023-04-19T01:19:52.172Z,8.76
2023-04-19T01:22:22.981Z,8.73
2023-04-19T01:24:51.814Z,8.73
2023-04-19T01:27:20.176Z,8.76
2023-04-19T01:29:48.628Z,8.80
2023-04-19T01:32:17.583Z,8.82
2023-04-19T01:34:47.281Z,8.85
2023-04-19T01:37:16.895Z,8.84
2023-04-19T01:39:45.173Z,8.81
2023-04-19T01:42:15.398Z,8.76
2023-04-19T01:44:45.010Z,8.72
2023-04-19T01:47:13.419Z,8.67
2023-04-19T01:49:42.335Z,8.64
2023-04-19T01:52:10.614Z,8.66
2023-04-19T01:54:38.995Z,8.68
2023-04-19T01:57:08.902Z,8.69
2023-04-19T01:59:38.407Z,8.66
2023-04-19T02:02:08.569Z,8.62
2023-04-19T02:04:38.812Z,8.58
2023-04-19T02:07:08.666Z,8.52
2023-04-19T02:09:37.767Z,8.44
2023-04-19T02:12:06.763Z,8.36
2023-04-19T02:14:35.655Z,8.27
2023-04-19T02:17:06.896Z,8.19
2023-04-19T02:19:36.604Z,8.14
2023-04-19T02:22:06.474Z,8.11
2023-04-19T02:24:34.973Z,8.04
2023-04-19T02:27:03.442Z,7.93
2023-04-19T02:29:34.785Z,7.80
2023-04-19T02:32:08.637Z,7.66
2023-04-19T02:34:39.327Z,7.54
2023-04-19T02:37:07.705Z,7.45
2023-04-19T02:39:36.287Z,7.37
2023-04-19T02:42:05.799Z,7.34
2023-04-19T02:44:33.868Z,7.38
2023-04-19T02:47:02.153Z,7.44
2023-04-19T02:49:32.838Z,7.45
2023-04-19T02:52:01.559Z,7.46
2023-04-19T02:54:32.652Z,7.43
2023-04-19T02:57:01.326Z,7.37
2023-04-19T02:59:29.611Z,7.29
2023-04-19T03:01:59.649Z,7.24
2023-04-19T03:04:29.208Z,7.17
2023-04-19T03:06:57.712Z,7.11
2023-04-19T03:09:26.600Z,7.09
2023-04-19T03:11:55.199Z,7.08
2023-04-19T03:14:23.669Z,7.07
2023-04-19T03:16:52.254Z,7.06
2023-04-19T03:19:20.736Z,7.04
2023-04-19T03:21:51.877Z,7.05
2023-04-19T03:24:30.309Z,7.09
2023-04-19T03:26:59.999Z,7.16
2023-04-19T03:29:30.116Z,7.24
2023-04-19T03:32:02.088Z,7.34
2023-04-19T03:34:30.777Z,7.43
2023-04-19T03:36:59.448Z,7.51
2023-04-19T03:39:28.436Z,7.57
2023-04-19T03:42:01.657Z,7.61
2023-04-19T03:44:48.773Z,7.66
2023-04-19T03:47:18.718Z,7.69
2023-04-19T03:49:49.468Z,7.72
2023-04-19T03:52:18.507Z,7.76
2023-04-19T03:54:47.945Z,7.86
2023-04-19T03:57:27.489Z,7.99
2023-04-19T03:59:56.065Z,8.09
2023-04-19T04:02:25.017Z,8.19
2023-04-19T04:04:55.445Z,8.28
2023-04-19T04:07:24.990Z,8.36
2023-04-19T04:09:54.804Z,8.43
2023-04-19T04:12:23.696Z,8.48
2023-04-19T04:14:53.508Z,8.54
2023-04-19T04:17:24.601Z,8.61
2023-04-19T04:19:53.236Z,8.74
2023-04-19T04:22:23.146Z,8.90
2023-04-19T04:24:54.089Z,9.00
2023-04-19T04:27:26.874Z,9.07
2023-04-19T04:29:56.913Z,9.11
2023-04-19T04:32:25.505Z,9.16
2023-04-19T04:34:58.139Z,9.19
2023-04-19T04:37:41.812Z,9.24
2023-04-19T04:40:11.525Z,9.30
2023-04-19T04:42:40.107Z,9.35
2023-04-19T04:45:10.909Z,9.37
2023-04-19T04:47:39.675Z,9.42
2023-04-19T04:50:09.336Z,9.51
2023-04-19T04:52:38.036Z,9.63
2023-04-19T04:55:25.416Z,9.74
2023-04-19T04:57:55.244Z,9.81
2023-04-19T05:00:31.184Z,9.87
2023-04-19T05:03:03.486Z,9.92
2023-04-19T05:05:33.883Z,9.99
2023-04-19T05:08:02.167Z,10.08
2023-04-19T05:10:31.454Z,10.17
2023-04-19T05:13:01.767Z,10.22
2023-04-19T05:15:31.096Z,10.24
2023-04-19T05:17:59.898Z,10.31
2023-04-19T05:20:29.719Z,10.42
2023-04-19T05:23:06.768Z,10.53
2023-04-19T05:25:35.586Z,10.58
2023-04-19T05:28:07.849Z,10.64
2023-04-19T05:30:44.277Z,10.75
2023-04-19T05:33:13.270Z,10.80
2023-04-19T05:35:41.957Z,10.79
2023-04-19T05:38:10.547Z,10.79
2023-04-19T05:40:48.120Z,10.76
2023-04-19T05:43:16.421Z,10.75
2023-04-19T05:45:45.015Z,10.78
2023-04-19T05:48:13.484Z,10.86
2023-04-19T05:51:19.214Z,10.93
2023-04-19T05:54:12.909Z,10.96
2023-04-19T05:56:43.647Z,10.99
2023-04-19T05:59:12.025Z,10.98
2023-04-19T06:01:40.834Z,11.01
2023-04-19T06:04:09.409Z,11.11
2023-04-19T06:06:38.290Z,11.19
2023-04-19T06:09:07.514Z,11.21
2023-04-19T06:11:43.140Z,11.24
2023-04-19T06:14:18.510Z,11.27
2023-04-19T06:16:47.681Z,11.30
2023-04-19T06:19:16.266Z,11.31
2023-04-19T06:21:44.640Z,11.35
2023-04-19T06:24:13.300Z,11.39
2023-04-19T06:26:41.709Z,11.48
2023-04-19T06:29:10.091Z,11.61
2023-04-19T06:31:38.713Z,11.76
2023-04-19T06:34:06.943Z,11.82
2023-04-19T06:36:35.732Z,11.80
2023-04-19T06:39:04.424Z,11.71
2023-04-19T06:41:32.695Z,11.62
2023-04-19T06:44:01.409Z,11.54
2023-04-19T06:46:29.965Z,11.48
2023-04-19T06:48:58.171Z,11.48
2023-04-19T06:51:26.521Z,11.57
2023-04-19T06:53:55.007Z,11.77
2023-04-19T06:56:47.150Z,12.04
2023-04-19T06:59:17.422Z,12.40
2023-04-19T07:01:46.155Z,12.73
2023-04-19T07:04:15.515Z,13.03
2023-04-19T07:06:44.246Z,13.29
2023-04-19T07:09:12.542Z,13.48
2023-04-19T07:11:43.148Z,13.62
2023-04-19T07:14:11.834Z,13.72
2023-04-19T07:16:42.990Z,13.80
2023-04-19T07:19:11.366Z,13.85
2023-04-19T07:21:40.039Z,13.93
2023-04-19T07:24:13.725Z,14.08
2023-04-19T07:26:53.611Z,14.23
2023-04-19T07:29:22.688Z,14.39
2023-04-19T07:31:51.036Z,14.56
2023-04-19T07:34:19.576Z,14.71
2023-04-19T07:36:50.489Z,14.82
2023-04-19T07:39:21.430Z,14.96
2023-04-19T07:41:49.942Z,15.09
2023-04-19T07:44:18.765Z,15.22
2023-04-19T07:46:48.049Z,15.32
2023-04-19T07:49:16.592Z,15.48
2023-04-19T07:51:45.108Z,15.63
2023-04-19T07:54:16.928Z,15.79
2023-04-19T07:56:46.049Z,15.97
2023-04-19T07:59:14.502Z,16.14
2023-04-19T08:01:43.959Z,16.30
2023-04-19T08:04:12.597Z,16.51
2023-04-19T08:06:41.781Z,16.79
2023-04-19T08:09:10.976Z,17.03
2023-04-19T08:11:39.261Z,17.29
2023-04-19T08:14:15.068Z,17.48
2023-04-19T08:19:22.009Z,17.78
2023-04-19T08:21:50.723Z,17.91
2023-04-19T08:24:19.262Z,18.06
2023-04-19T08:26:54.110Z,18.24
2023-04-19T08:29:26.177Z,18.39
2023-04-19T08:31:54.735Z,18.51
2023-04-19T08:34:23.447Z,18.58
2023-04-19T08:37:03.441Z,18.77
2023-04-19T08:39:34.188Z,19.02
2023-04-19T08:42:11.073Z,19.25
2023-04-19T08:45:22.637Z,19.43
2023-04-19T08:47:56.309Z,19.40
2023-04-19T08:50:34.590Z,19.45
2023-04-19T08:56:03.519Z,19.68
2023-04-19T08:58:51.974Z,19.77
2023-04-19T09:01:34.706Z,19.91
2023-04-19T09:06:41.476Z,20.15
2023-04-19T09:09:29.221Z,20.29
2023-04-19T09:12:04.261Z,20.53
2023-04-19T09:14:36.833Z,20.76
2023-04-19T09:17:17.382Z,20.90
2023-04-19T09:19:47.277Z,20.99
2023-04-19T09:22:15.593Z,21.10
2023-04-19T09:27:22.667Z,21.13
2023-04-19T09:29:55.771Z,20.99
2023-04-19T09:32:24.778Z,20.96
2023-04-19T09:34:58.083Z,20.91
2023-04-19T09:37:56.709Z,20.84
2023-04-19T09:40:24.892Z,20.90
2023-04-19T09:46:53.359Z,21.07
2023-04-19T09:49:41.673Z,21.19
2023-04-19T09:52:15.934Z,21.23
2023-04-19T09:54:44.389Z,21.32
2023-04-19T09:57:12.680Z,21.37
2023-04-19T09:59:41.549Z,21.11
2023-04-19T10:02:10.105Z,20.90
2023-04-19T10:09:53.127Z,21.65
2023-04-19T10:14:58.763Z,21.69
2023-04-19T10:17:27.469Z,21.72
2023-04-19T10:20:01.970Z,21.75
2023-04-19T10:22:30.692Z,21.91
2023-04-19T10:25:29.307Z,21.92
2023-04-19T10:27:57.692Z,21.45
2023-04-19T10:30:29.391Z,20.70
2023-04-19T10:32:59.857Z,20.04
2023-04-19T10:35:33.926Z,19.62
2023-04-19T10:38:09.272Z,19.45
2023-04-19T10:40:54.444Z,19.37
2023-04-19T10:43:26.401Z,19.13
2023-04-19T10:45:55.636Z,18.94
2023-04-19T10:48:31.055Z,18.84
2023-04-19T10:51:04.242Z,18.84
2023-04-19T10:53:49.830Z,18.97
2023-04-19T10:56:39.472Z,18.90
2023-04-19T10:59:16.734Z,18.63
2023-04-19T11:01:47.025Z,18.48
2023-04-19T11:04:16.108Z,18.50
2023-04-19T11:06:54.212Z,18.66
2023-04-19T11:09:34.947Z,19.03
2023-04-19T11:12:04.850Z,19.46
2023-04-19T11:14:38.795Z,19.84
2023-04-19T11:17:27.400Z,20.32
2023-04-19T11:19:58.053Z,20.64
2023-04-19T11:22:36.141Z,20.68
2023-04-19T11:25:16.762Z,20.65
2023-04-19T11:27:46.562Z,20.66
2023-04-19T11:30:23.090Z,20.81
2023-04-19T11:32:55.820Z,21.08
2023-04-19T11:35:28.080Z,21.41
2023-04-19T11:37:56.910Z,21.81
2023-04-19T11:40:28.819Z,22.07
2023-04-19T11:43:02.413Z,22.01
2023-04-19T11:45:39.239Z,21.57
2023-04-19T11:48:15.712Z,20.95
2023-04-19T11:50:45.413Z,20.63
2023-04-19T11:53:16.452Z,20.51
2023-04-19T11:55:48.528Z,20.45
2023-04-19T11:58:45.189Z,20.35
2023-04-19T12:01:16.037Z,20.24
2023-04-19T12:03:54.667Z,20.10
2023-04-19T12:06:28.275Z,20.07
2023-04-19T12:08:57.121Z,19.89
2023-04-19T12:11:27.080Z,19.67
2023-04-19T12:14:11.826Z,19.38
2023-04-19T12:16:40.388Z,19.21
2023-04-19T12:19:21.561Z,19.11
2023-04-19T12:21:50.037Z,19.04
2023-04-19T12:24:18.432Z,18.93
2023-04-19T12:27:04.263Z,18.70
2023-04-19T12:29:34.217Z,18.42
2023-04-19T12:32:03.674Z,18.17
2023-04-19T12:34:33.538Z,17.93
2023-04-19T12:37:02.952Z,17.71
2023-04-19T12:39:31.939Z,17.44
2023-04-19T12:42:03.414Z,17.16
2023-04-19T12:44:31.861Z,16.97
2023-04-19T12:47:03.213Z,16.77
2023-04-19T12:49:32.516Z,16.64
2023-04-19T12:52:01.094Z,16.53
2023-04-19T12:54:30.825Z,16.41
2023-04-19T12:56:59.080Z,16.37
2023-04-19T12:59:31.069Z,16.32
2023-04-19T13:02:05.042Z,16.21
2023-04-19T13:04:33.918Z,16.09
2023-04-19T13:07:02.637Z,15.99
2023-04-19T13:09:34.220Z,15.85
2023-04-19T13:12:03.386Z,15.74
2023-04-19T13:14:32.174Z,15.59
2023-04-19T13:17:00.666Z,15.43
2023-04-19T13:19:29.457Z,15.29
2023-04-19T13:21:57.832Z,15.18
2023-04-19T13:24:26.522Z,15.14
2023-04-19T13:26:55.584Z,15.13
2023-04-19T13:29:24.409Z,15.14
2023-04-19T13:31:53.082Z,15.12
2023-04-19T13:34:21.670Z,15.13
2023-04-19T13:36:50.359Z,15.12
2023-04-19T13:39:18.838Z,15.12
2023-04-19T13:41:47.320Z,15.13
2023-04-19T13:44:16.235Z,15.19
2023-04-19T13:46:45.106Z,15.26
2023-04-19T13:49:13.794Z,15.27
2023-04-19T13:51:49.578Z,15.26
2023-04-19T13:54:20.053Z,15.25
2023-04-19T13:56:51.370Z,15.22
2023-04-19T13:59:21.392Z,15.16
2023-04-19T14:01:49.754Z,15.09
2023-04-19T14:04:19.548Z,15.02
2023-04-19T14:06:49.445Z,14.93
2023-04-19T14:09:18.270Z,14.88
2023-04-19T14:11:47.431Z,14.87
2023-04-19T14:14:18.323Z,14.86
2023-04-19T14:16:47.062Z,14.87
2023-04-19T14:19:15.842Z,14.87
2023-04-19T14:21:44.231Z,14.89
2023-04-19T14:24:13.241Z,14.88
2023-04-19T14:26:41.600Z,14.81
2023-04-19T14:29:10.902Z,14.73
2023-04-19T14:31:39.339Z,14.69
2023-04-19T14:34:07.963Z,14.64
2023-04-19T14:36:36.785Z,14.56
2023-04-19T14:39:13.125Z,14.49
2023-04-19T14:41:41.711Z,14.43
2023-04-19T14:44:10.568Z,14.39
2023-04-19T14:46:38.972Z,14.33
2023-04-19T14:49:07.451Z,14.26
2023-04-19T14:51:36.447Z,14.20
2023-04-19T14:54:04.674Z,14.16
2023-04-19T14:56:33.100Z,14.13
2023-04-19T14:59:01.659Z,14.11
2023-04-19T15:01:30.329Z,14.11
2023-04-19T15:03:59.275Z,14.12
2023-04-19T15:06:27.752Z,14.13
2023-04-19T15:08:56.334Z,14.14
2023-04-19T15:11:24.808Z,14.14
2023-04-19T15:13:52.967Z,14.14
2023-04-19T15:16:21.430Z,14.17
2023-04-19T15:18:49.837Z,14.21
2023-04-19T15:21:24.341Z,14.26
2023-04-19T15:23:53.207Z,14.29
2023-04-19T15:26:21.934Z,14.33
2023-04-19T15:28:57.039Z,14.40
2023-04-19T15:31:25.408Z,14.45
2023-04-19T15:33:54.449Z,14.49
2023-04-19T15:36:22.732Z,14.50
2023-04-19T15:38:51.307Z,14.48
2023-04-19T15:41:20.128Z,14.45
2023-04-19T15:43:48.519Z,14.40
2023-04-19T15:46:17.293Z,14.36
2023-04-19T15:48:47.046Z,14.33
2023-04-19T15:51:15.874Z,14.27
2023-04-19T15:53:44.247Z,14.23
2023-04-19T15:56:12.627Z,14.19
2023-04-19T15:58:41.515Z,14.17
2023-04-19T16:01:13.524Z,14.16
2023-04-19T16:03:42.259Z,14.14
2023-04-19T16:06:10.753Z,14.12
2023-04-19T16:08:39.335Z,14.13
2023-04-19T16:11:07.971Z,14.19
2023-04-19T16:13:36.500Z,14.27
2023-04-19T16:16:05.900Z,14.32
2023-04-19T16:18:34.893Z,14.35
2023-04-19T16:21:03.583Z,14.34
2023-04-19T16:23:32.582Z,14.33
2023-04-19T16:26:00.974Z,14.31
2023-04-19T16:28:29.744Z,14.28
2023-04-19T16:30:58.029Z,14.24
2023-04-19T16:33:26.825Z,14.19
2023-04-19T16:35:55.093Z,14.12
2023-04-19T16:38:23.473Z,14.04
2023-04-19T16:40:52.053Z,13.96
2023-04-19T16:43:22.384Z,13.89
2023-04-19T16:45:50.707Z,13.87
2023-04-19T16:48:20.056Z,13.88
2023-04-19T16:50:50.997Z,13.89
2023-04-19T16:53:20.092Z,13.89
2023-04-19T16:55:48.883Z,13.87
2023-04-19T16:58:19.207Z,13.81
2023-04-19T17:00:48.725Z,13.73
2023-04-19T17:03:20.488Z,13.61
2023-04-19T17:05:49.156Z,13.51
2023-04-19T17:08:17.541Z,13.43
2023-04-19T17:10:45.835Z,13.35
2023-04-19T17:13:17.014Z,13.33
2023-04-19T17:15:46.030Z,13.37
2023-04-19T17:18:14.592Z,13.38
2023-04-19T17:20:42.912Z,13.38
2023-04-19T17:23:11.164Z,13.34
2023-04-19T17:25:39.636Z,13.28
2023-04-19T17:28:07.959Z,13.22
2023-04-19T17:30:36.432Z,13.15
2023-04-19T17:33:08.319Z,13.08
2023-04-19T17:35:36.570Z,13.02
2023-04-19T17:38:07.510Z,12.94
2023-04-19T17:40:35.893Z,12.86
2023-04-19T17:43:04.380Z,12.80
2023-04-19T17:45:32.862Z,12.75
2023-04-19T17:48:02.293Z,12.76
2023-04-19T17:50:30.837Z,12.79
2023-04-19T17:52:59.157Z,12.82
2023-04-19T17:55:27.326Z,12.81
2023-04-19T17:57:55.872Z,12.80
2023-04-19T18:00:24.352Z,12.77
2023-04-19T18:02:53.052Z,12.74
2023-04-19T18:05:21.735Z,12.70
2023-04-19T18:07:50.525Z,12.67
2023-04-19T18:10:19.511Z,12.62
2023-04-19T18:12:48.196Z,12.57
2023-04-19T18:15:16.477Z,12.53
2023-04-19T18:17:44.911Z,12.48
2023-04-19T18:20:14.053Z,12.44
2023-04-19T18:22:42.636Z,12.41
2023-04-19T18:25:11.320Z,12.38
2023-04-19T18:27:40.724Z,12.35
2023-04-19T18:30:09.818Z,12.29
2023-04-19T18:32:38.953Z,12.23
2023-04-19T18:35:10.183Z,12.18
2023-04-19T18:37:39.265Z,12.12
2023-04-19T18:40:09.003Z,12.09
2023-04-19T18:42:37.653Z,12.11
2023-04-19T18:45:07.484Z,12.12
2023-04-19T18:47:36.012Z,12.11
2023-04-19T18:50:06.684Z,12.09
2023-04-19T18:52:37.029Z,12.05
2023-04-19T18:55:06.584Z,12.04
2023-04-19T18:57:35.356Z,12.02
2023-04-19T19:00:06.464Z,11.98
2023-04-19T19:02:37.686Z,11.95
2023-04-19T19:05:12.600Z,11.89
2023-04-19T19:07:43.102Z,11.81
2023-04-19T19:12:43.098Z,11.73
2023-04-19T19:15:11.609Z,11.74
2023-04-19T19:17:40.754Z,11.80
2023-04-19T19:20:10.305Z,11.84
2023-04-19T19:22:38.567Z,11.88
2023-04-19T19:25:16.571Z,11.88
2023-04-19T19:28:03.015Z,11.85
2023-04-19T19:30:34.777Z,11.81
2023-04-19T19:33:05.142Z,11.76
2023-04-19T19:35:33.763Z,11.72
2023-04-19T19:38:02.215Z,11.68
2023-04-19T19:40:32.497Z,11.63
2023-04-19T19:43:01.759Z,11.59
2023-04-19T19:45:31.653Z,11.53
2023-04-19T19:48:00.690Z,11.48
2023-04-19T19:53:02.932Z,11.34
2023-04-19T19:55:32.662Z,11.24
2023-04-19T19:58:32.662Z,11.16
2023-04-19T20:03:35.346Z,11.00
2023-04-19T20:08:43.946Z,10.87
2023-04-19T20:11:12.990Z,10.80
2023-04-19T20:13:41.472Z,10.74
2023-04-19T20:16:11.027Z,10.73
2023-04-19T20:18:39.457Z,10.74
2023-04-19T20:21:09.844Z,10.77
2023-04-19T20:23:41.991Z,10.77
2023-04-19T20:26:10.433Z,10.74
2023-04-19T20:28:39.639Z,10.70
2023-04-19T20:31:08.421Z,10.64
2023-04-19T20:33:37.114Z,10.59
2023-04-19T20:36:07.024Z,10.53
2023-04-19T20:38:36.121Z,10.46
2023-04-19T20:41:04.486Z,10.40
2023-04-19T20:43:33.099Z,10.33
2023-04-19T20:46:01.406Z,10.25
2023-04-19T20:48:29.959Z,10.21
2023-04-19T20:50:58.339Z,10.20
2023-04-19T20:53:28.134Z,10.21
2023-04-19T20:55:56.609Z,10.21
2023-04-19T20:58:24.996Z,10.20
2023-04-19T21:00:53.360Z,10.17
2023-04-19T21:03:22.329Z,10.12
2023-04-19T21:05:51.312Z,10.10
2023-04-19T21:08:20.943Z,10.08
2023-04-19T21:10:49.661Z,10.09
2023-04-19T21:13:18.033Z,10.11
2023-04-19T21:15:46.439Z,10.15
2023-04-19T21:18:14.788Z,10.23
2023-04-19T21:20:43.793Z,10.32
2023-04-19T21:23:12.163Z,10.37
2023-04-19T21:25:40.716Z,10.41
2023-04-19T21:28:09.153Z,10.43
2023-04-19T21:30:43.496Z,10.43
2023-04-19T21:33:12.646Z,10.42
2023-04-19T21:35:40.952Z,10.42
2023-04-19T21:38:09.330Z,10.42
2023-04-19T21:40:37.913Z,10.42
2023-04-19T21:43:06.320Z,10.45
2023-04-19T21:45:34.592Z,10.50
2023-04-19T21:48:02.780Z,10.54
2023-04-19T21:50:31.742Z,10.56
2023-04-19T21:53:00.036Z,10.55
2023-04-19T21:55:32.593Z,10.54
2023-04-19T21:58:02.387Z,10.52
2023-04-19T22:03:00.917Z,10.41
2023-04-19T22:05:29.562Z,10.31
2023-04-19T22:07:59.134Z,10.26
2023-04-19T22:10:28.650Z,10.20
2023-04-19T22:12:59.050Z,10.18
2023-04-19T22:15:28.163Z,10.21
2023-04-19T22:17:57.751Z,10.23
2023-04-19T22:20:27.170Z,10.23
2023-04-19T22:22:56.275Z,10.21
2023-04-19T22:25:24.759Z,10.18
2023-04-19T22:27:53.541Z,10.15
2023-04-19T22:30:21.933Z,10.12
2023-04-19T22:32:50.221Z,10.10
2023-04-19T22:35:20.660Z,10.09
2023-04-19T22:37:50.694Z,10.07
2023-04-19T22:40:18.826Z,10.07
2023-04-19T22:42:47.290Z,10.11
2023-04-19T22:45:15.588Z,10.16
2023-04-19T22:47:43.954Z,10.19
2023-04-19T22:50:12.729Z,10.21
2023-04-19T22:52:41.818Z,10.21
2023-04-19T22:55:11.101Z,10.20
2023-04-19T22:57:40.083Z,10.19
2023-04-19T23:00:10.978Z,10.17
2023-04-19T23:02:40.045Z,10.15
2023-04-19T23:05:09.339Z,10.18
2023-04-19T23:07:40.269Z,10.23
2023-04-19T23:10:10.569Z,10.28
2023-04-19T23:12:40.220Z,10.30
2023-04-19T23:15:10.789Z,10.31
2023-04-19T23:17:39.965Z,10.31
2023-04-19T23:20:12.669Z,10.30
2023-04-19T23:22:41.426Z,10.27
2023-04-19T23:25:10.020Z,10.24
2023-04-19T23:27:38.914Z,10.21
2023-04-19T23:30:08.541Z,10.21
2023-04-19T23:32:38.243Z,10.25
2023-04-19T23:35:07.124Z,10.28
2023-04-19T23:37:38.030Z,10.28
2023-04-19T23:40:07.974Z,10.28
2023-04-19T23:42:50.200Z,10.27
2023-04-19T23:45:18.668Z,10.23
2023-04-19T23:47:47.104Z,10.18
2023-04-19T23:50:15.561Z,10.15
2023-04-19T23:52:46.857Z,10.13
2023-04-19T23:55:15.294Z,10.13
2023-04-19T23:57:45.725Z,10.11
